createdAt,value
2023-04-23T00:01:08.281Z,39.64
2023-04-23T00:06:30.291Z,39.78
2023-04-23T00:11:52.298Z,39.92
2023-04-23T00:17:14.269Z,40.02
2023-04-23T00:22:36.264Z,40.56
2023-04-23T00:27:58.259Z,40.89
2023-04-23T00:33:20.266Z,40.96
2023-04-23T00:38:42.267Z,41.29
2023-04-23T00:44:04.290Z,41.43
2023-04-23T00:49:28.277Z,41.56
2023-04-23T00:54:57.245Z,41.93
2023-04-23T01:00:20.312Z,42.05
2023-04-23T01:05:42.267Z,42.04
2023-04-23T01:11:04.306Z,42.04
2023-04-23T01:16:26.303Z,42.30
2023-04-23T01:21:48.252Z,42.41
2023-04-23T01:27:10.251Z,42.55
2023-04-23T01:32:32.297Z,42.48
2023-04-23T01:37:55.269Z,42.58
2023-04-23T01:43:17.279Z,42.55
2023-04-23T01:48:39.272Z,42.84
2023-04-23T01:54:08.248Z,42.83
2023-04-23T01:59:30.279Z,42.98
2023-04-23T02:04:53.268Z,42.67
2023-04-23T02:10:15.269Z,42.78
2023-04-23T02:15:39.272Z,42.63
2023-04-23T02:21:01.260Z,42.18
2023-04-23T02:26:23.265Z,42.35
2023-04-23T02:31:45.269Z,42.31
2023-04-23T02:37:07.284Z,42.59
2023-04-23T02:42:29.260Z,42.68
2023-04-23T02:47:51.320Z,43.40
2023-04-23T02:53:20.235Z,43.28
2023-04-23T02:58:42.293Z,43.11
2023-04-23T03:04:04.572Z,43.12
2023-04-23T03:09:26.332Z,43.04
2023-04-23T03:14:48.256Z,43.01
2023-04-23T03:20:13.265Z,42.72
2023-04-23T03:25:35.243Z,42.91
2023-04-23T03:30:57.277Z,42.96
2023-04-23T03:36:19.245Z,43.02
2023-04-23T03:41:41.261Z,42.98
2023-04-23T03:47:05.261Z,43.21
2023-04-23T03:52:27.254Z,43.16
2023-04-23T03:57:50.261Z,42.91
2023-04-23T04:03:15.353Z,42.91
2023-04-23T04:08:37.252Z,42.95
2023-04-23T04:13:59.260Z,43.11
2023-04-23T04:19:21.256Z,43.05
2023-04-23T04:24:43.486Z,43.27
2023-04-23T04:30:05.250Z,43.07
2023-04-23T04:35:27.229Z,43.44
2023-04-23T04:40:49.256Z,43.32
2023-04-23T04:46:11.233Z,43.39
2023-04-23T04:51:33.256Z,43.31
2023-04-23T04:56:55.228Z,43.43
2023-04-23T05:02:17.321Z,43.63
2023-04-23T05:07:39.245Z,43.81
2023-04-23T05:13:01.233Z,44.04
2023-04-23T05:18:23.239Z,44.34
2023-04-23T05:23:45.246Z,44.46
2023-04-23T05:29:07.222Z,44.94
2023-04-23T05:34:29.218Z,45.74
2023-04-23T05:39:51.237Z,46.69
2023-04-23T05:45:13.228Z,46.62
2023-04-23T05:50:35.216Z,46.99
2023-04-23T05:55:57.192Z,47.28
2023-04-23T06:01:19.198Z,47.49
2023-04-23T06:06:41.199Z,48.22
2023-04-23T06:12:03.228Z,48.21
2023-04-23T06:17:25.199Z,48.34
2023-04-23T06:22:47.206Z,48.65
2023-04-23T06:28:09.264Z,49.01
2023-04-23T06:33:46.204Z,48.95
2023-04-23T06:39:08.197Z,48.85
2023-04-23T06:44:30.196Z,49.01
2023-04-23T06:49:53.214Z,49.07
2023-04-23T06:55:22.227Z,49.56
2023-04-23T07:00:44.251Z,49.39
2023-04-23T07:06:08.192Z,49.41
2023-04-23T07:11:30.198Z,49.68
2023-04-23T07:16:52.235Z,50.07
2023-04-23T07:22:14.227Z,50.26
2023-04-23T07:27:36.225Z,50.38
2023-04-23T07:32:58.216Z,50.54
2023-04-23T07:38:20.201Z,50.55
2023-04-23T07:43:42.222Z,50.35
2023-04-23T07:49:04.214Z,50.65
2023-04-23T07:54:26.204Z,50.68
2023-04-23T07:59:48.221Z,51.16
2023-04-23T08:05:10.307Z,50.87
2023-04-23T08:10:32.211Z,50.72
2023-04-23T08:15:55.208Z,50.95
2023-04-23T08:21:19.204Z,51.19
2023-04-23T08:26:41.210Z,51.37
2023-04-23T08:32:03.243Z,51.47
2023-04-23T08:37:30.883Z,51.56
2023-04-23T08:43:10.200Z,51.93
2023-04-23T08:48:32.205Z,51.73
2023-04-23T08:54:08.196Z,51.62
2023-04-23T08:59:30.250Z,51.75
2023-04-23T09:04:53.558Z,51.88
2023-04-23T09:10:19.193Z,52.15
2023-04-23T09:15:45.183Z,52.35
2023-04-23T09:21:10.194Z,52.16
2023-04-23T09:26:34.188Z,51.71
2023-04-23T09:31:58.221Z,51.72
2023-04-23T09:37:21.163Z,51.88
2023-04-23T09:42:44.175Z,51.51
2023-04-23T09:48:07.297Z,51.74
2023-04-23T09:53:29.190Z,51.39
2023-04-23T09:58:51.184Z,51.40
2023-04-23T10:04:13.428Z,51.16
2023-04-23T10:09:36.150Z,51.25
2023-04-23T10:15:00.191Z,51.36
2023-04-23T10:20:23.187Z,51.07
2023-04-23T10:25:46.162Z,51.30
2023-04-23T10:31:08.217Z,51.24
2023-04-23T10:36:32.184Z,51.16
2023-04-23T10:41:56.152Z,51.38
2023-04-23T10:47:22.166Z,51.39
2023-04-23T10:52:46.161Z,51.36
2023-04-23T10:58:14.167Z,51.41
2023-04-23T11:03:51.291Z,51.48
2023-04-23T11:09:41.418Z,51.80
2023-04-23T11:15:04.195Z,51.71
2023-04-23T11:20:30.197Z,51.49
2023-04-23T11:25:55.178Z,51.39
2023-04-23T11:31:17.169Z,50.75
2023-04-23T11:36:39.177Z,50.25
2023-04-23T11:42:01.171Z,50.00
2023-04-23T11:47:25.154Z,49.56
2023-04-23T11:52:47.173Z,49.51
2023-04-23T11:58:11.166Z,49.75
2023-04-23T12:03:33.277Z,49.77
2023-04-23T12:08:55.198Z,49.37
2023-04-23T12:14:19.178Z,48.61
2023-04-23T12:19:43.387Z,48.41
2023-04-23T12:25:06.152Z,47.91
2023-04-23T12:30:28.154Z,48.22
2023-04-23T12:36:00.169Z,48.12
2023-04-23T12:41:22.153Z,47.53
2023-04-23T12:46:44.251Z,47.29
2023-04-23T12:52:12.124Z,46.88
2023-04-23T12:57:35.151Z,47.01
2023-04-23T13:02:57.280Z,46.70
2023-04-23T13:08:19.166Z,46.33
2023-04-23T13:13:41.156Z,46.06
2023-04-23T13:19:03.165Z,45.78
2023-04-23T13:24:25.170Z,45.65
2023-04-23T13:29:47.153Z,45.61
2023-04-23T13:35:11.151Z,45.51
2023-04-23T13:40:33.159Z,44.55
2023-04-23T13:45:55.198Z,44.35
2023-04-23T13:51:32.565Z,44.45
2023-04-23T13:57:03.150Z,44.08
2023-04-23T14:02:25.214Z,43.68
2023-04-23T14:07:47.152Z,43.54
2023-04-23T14:13:10.158Z,42.92
2023-04-23T14:18:32.145Z,42.52
2023-04-23T14:23:54.144Z,42.27
2023-04-23T14:29:22.129Z,41.74
2023-04-23T14:34:44.134Z,41.90
2023-04-23T14:40:06.151Z,41.05
2023-04-23T14:45:28.139Z,41.17
2023-04-23T14:50:50.146Z,41.07
2023-04-23T14:56:19.155Z,40.44
2023-04-23T15:01:41.183Z,40.31
2023-04-23T15:07:03.169Z,40.12
2023-04-23T15:13:00.169Z,39.74
2023-04-23T15:18:22.175Z,39.03
2023-04-23T15:23:47.145Z,39.30
2023-04-23T15:29:09.325Z,39.07
2023-04-23T15:34:31.143Z,38.48
2023-04-23T15:39:53.152Z,38.12
2023-04-23T15:45:19.133Z,37.96
2023-04-23T15:50:41.167Z,37.56
2023-04-23T15:56:10.186Z,37.01
2023-04-23T16:01:32.159Z,37.13
2023-04-23T16:06:54.141Z,36.76
2023-04-23T16:12:16.125Z,36.63
2023-04-23T16:17:38.224Z,37.12
2023-04-23T16:23:00.179Z,37.05
2023-04-23T16:28:22.166Z,37.23
2023-04-23T16:33:44.135Z,37.01
2023-04-23T16:39:06.133Z,36.75
2023-04-23T16:44:28.144Z,36.62
2023-04-23T16:49:50.165Z,36.56
2023-04-23T16:55:12.139Z,36.34
2023-04-23T17:00:34.174Z,35.99
2023-04-23T17:06:02.124Z,36.31
2023-04-23T17:11:24.133Z,36.50
2023-04-23T17:16:46.160Z,36.73
2023-04-23T17:22:08.134Z,37.10
2023-04-23T17:27:30.138Z,37.48
2023-04-23T17:32:52.154Z,37.70
2023-04-23T17:38:14.140Z,37.91
2023-04-23T17:43:38.141Z,38.41
2023-04-23T17:49:00.197Z,38.71
2023-04-23T17:54:22.148Z,38.69
2023-04-23T17:59:44.242Z,38.96
2023-04-23T18:05:06.144Z,39.51
2023-04-23T18:10:28.119Z,39.60
2023-04-23T18:15:50.376Z,40.11
2023-04-23T18:21:12.149Z,39.80
2023-04-23T18:26:34.149Z,40.28
2023-04-23T18:31:56.159Z,40.45
2023-04-23T18:37:23.125Z,40.67
2023-04-23T18:42:45.171Z,41.00
2023-04-23T18:48:16.181Z,40.88
2023-04-23T18:53:38.124Z,41.18
2023-04-23T18:59:00.146Z,41.36
2023-04-23T19:04:22.309Z,41.62
2023-04-23T19:09:44.460Z,41.62
2023-04-23T19:15:06.113Z,42.06
2023-04-23T19:20:28.130Z,42.14
2023-04-23T19:25:50.130Z,42.33
2023-04-23T19:31:12.177Z,42.27
2023-04-23T19:36:34.171Z,42.03
2023-04-23T19:41:56.128Z,42.59
2023-04-23T19:47:18.135Z,42.44
2023-04-23T19:52:40.134Z,42.81
2023-04-23T19:58:03.121Z,40.80
2023-04-23T20:03:25.282Z,41.16
2023-04-23T20:09:10.145Z,42.13
2023-04-23T20:14:32.108Z,42.84
2023-04-23T20:19:54.121Z,43.45
2023-04-23T20:25:16.145Z,44.00
2023-04-23T20:30:38.161Z,44.42
2023-04-23T20:36:00.178Z,44.86
2023-04-23T20:41:22.113Z,45.50
2023-04-23T20:46:46.121Z,45.60
2023-04-23T20:52:08.112Z,46.04
2023-04-23T20:57:45.112Z,46.36
2023-04-23T21:03:07.267Z,46.63
2023-04-23T21:08:29.107Z,47.06
2023-04-23T21:13:52.102Z,47.00
2023-04-23T21:19:14.099Z,47.22
2023-04-23T21:24:36.127Z,47.24
2023-04-23T21:29:58.125Z,47.45
2023-04-23T21:35:20.127Z,47.02
2023-04-23T21:40:42.137Z,47.10
2023-04-23T21:46:04.106Z,47.52
2023-04-23T21:51:26.090Z,47.72
2023-04-23T21:56:48.109Z,47.88
2023-04-23T22:02:10.187Z,47.76
2023-04-23T22:07:33.113Z,47.53
2023-04-23T22:12:56.110Z,47.65
2023-04-23T22:18:18.077Z,47.96
2023-04-23T22:23:40.107Z,48.10
2023-04-23T22:29:02.081Z,48.09
2023-04-23T22:34:26.105Z,48.24
2023-04-23T22:39:48.100Z,48.27
2023-04-23T22:45:10.108Z,48.23
2023-04-23T22:50:33.086Z,48.43
2023-04-23T22:55:56.095Z,48.63
2023-04-23T23:01:18.151Z,48.81
2023-04-23T23:06:40.086Z,48.77
2023-04-23T23:12:02.100Z,48.78
2023-04-23T23:17:24.136Z,49.01
2023-04-23T23:22:46.068Z,49.09
2023-04-23T23:28:08.087Z,49.28
2023-04-23T23:33:30.084Z,49.03
2023-04-23T23:38:52.078Z,49.21
2023-04-23T23:44:14.087Z,49.35
2023-04-23T23:49:36.082Z,49.68
2023-04-23T23:54:58.102Z,49.61
